sensor_id;sensor_type;location;lat;lon;timestamp;temperature;humidity
5834;DHT22;2943;48.012;10.968;2023-04-03T00:00:39;2.10;99.90
5834;DHT22;2943;48.012;10.968;2023-04-03T00:03:05;2.10;99.90
5834;DHT22;2943;48.012;10.968;2023-04-03T00:05:34;2.10;99.90
5834;DHT22;2943;48.012;10.968;2023-04-03T00:08:01;2.10;99.90
5834;DHT22;2943;48.012;10.968;2023-04-03T00:10:28;2.10;99.90
5834;DHT22;2943;48.012;10.968;2023-04-03T00:12:55;2.10;99.90
5834;DHT22;2943;48.012;10.968;2023-04-03T00:15:22;2.10;99.90
5834;DHT22;2943;48.012;10.968;2023-04-03T00:17:49;2.00;99.90
5834;DHT22;2943;48.012;10.968;2023-04-03T00:20:16;2.10;99.90
5834;DHT22;2943;48.012;10.968;2023-04-03T00:22:44;2.00;99.90
5834;DHT22;2943;48.012;10.968;2023-04-03T00:25:11;2.00;99.90
5834;DHT22;2943;48.012;10.968;2023-04-03T00:27:38;1.90;99.90
5834;DHT22;2943;48.012;10.968;2023-04-03T00:30:07;2.00;99.90
5834;DHT22;2943;48.012;10.968;2023-04-03T00:32:34;2.10;99.90
5834;DHT22;2943;48.012;10.968;2023-04-03T00:35:01;2.00;99.90
5834;DHT22;2943;48.012;10.968;2023-04-03T00:37:28;2.00;99.90
5834;DHT22;2943;48.012;10.968;2023-04-03T00:39:56;1.90;99.90
5834;DHT22;2943;48.012;10.968;2023-04-03T00:42:23;2.00;99.90
5834;DHT22;2943;48.012;10.968;2023-04-03T00:45:25;1.90;99.90
5834;DHT22;2943;48.012;10.968;2023-04-03T00:47:53;2.00;99.90
5834;DHT22;2943;48.012;10.968;2023-04-03T00:50:21;2.00;99.90
5834;DHT22;2943;48.012;10.968;2023-04-03T00:52:47;2.00;99.90
5834;DHT22;2943;48.012;10.968;2023-04-03T00:55:16;2.00;99.90
5834;DHT22;2943;48.012;10.968;2023-04-03T00:57:44;2.00;99.90
5834;DHT22;2943;48.012;10.968;2023-04-03T01:00:15;2.00;99.90
5834;DHT22;2943;48.012;10.968;2023-04-03T01:02:43;2.00;99.90
5834;DHT22;2943;48.012;10.968;2023-04-03T01:05:11;2.00;99.90
5834;DHT22;2943;48.012;10.968;2023-04-03T01:07:38;2.00;99.90
5834;DHT22;2943;48.012;10.968;2023-04-03T01:10:10;2.00;99.90
5834;DHT22;2943;48.012;10.968;2023-04-03T01:12:42;2.00;99.90
5834;DHT22;2943;48.012;10.968;2023-04-03T01:15:11;2.00;99.90
5834;DHT22;2943;48.012;10.968;2023-04-03T01:17:41;2.00;99.90
5834;DHT22;2943;48.012;10.968;2023-04-03T01:20:49;2.10;99.90
5834;DHT22;2943;48.012;10.968;2023-04-03T01:23:36;2.10;99.90
5834;DHT22;2943;48.012;10.968;2023-04-03T01:26:04;2.00;99.90
5834;DHT22;2943;48.012;10.968;2023-04-03T01:28:34;2.10;99.90
5834;DHT22;2943;48.012;10.968;2023-04-03T01:31:08;2.10;99.90
5834;DHT22;2943;48.012;10.968;2023-04-03T01:33:38;2.10;99.90
5834;DHT22;2943;48.012;10.968;2023-04-03T01:36:06;2.00;99.90
5834;DHT22;2943;48.012;10.968;2023-04-03T01:38:33;2.00;99.90
5834;DHT22;2943;48.012;10.968;2023-04-03T01:41:00;2.10;99.90
5834;DHT22;2943;48.012;10.968;2023-04-03T01:43:26;2.10;99.90
5834;DHT22;2943;48.012;10.968;2023-04-03T01:45:53;2.10;99.90
5834;DHT22;2943;48.012;10.968;2023-04-03T01:48:20;2.10;99.90
5834;DHT22;2943;48.012;10.968;2023-04-03T01:50:49;1.90;99.90
5834;DHT22;2943;48.012;10.968;2023-04-03T01:53:15;2.00;99.90
5834;DHT22;2943;48.012;10.968;2023-04-03T01:55:42;2.00;99.90
5834;DHT22;2943;48.012;10.968;2023-04-03T01:58:09;2.00;99.90
5834;DHT22;2943;48.012;10.968;2023-04-03T02:00:36;2.00;99.90
5834;DHT22;2943;48.012;10.968;2023-04-03T02:03:03;2.10;99.90
5834;DHT22;2943;48.012;10.968;2023-04-03T02:05:29;2.00;99.90
5834;DHT22;2943;48.012;10.968;2023-04-03T02:07:58;2.00;99.90
5834;DHT22;2943;48.012;10.968;2023-04-03T02:10:24;1.90;99.90
5834;DHT22;2943;48.012;10.968;2023-04-03T02:12:51;1.80;99.90
5834;DHT22;2943;48.012;10.968;2023-04-03T02:15:18;1.80;99.90
5834;DHT22;2943;48.012;10.968;2023-04-03T02:17:45;1.80;99.90
5834;DHT22;2943;48.012;10.968;2023-04-03T02:20:12;1.70;99.90
5834;DHT22;2943;48.012;10.968;2023-04-03T02:22:38;1.70;99.90
5834;DHT22;2943;48.012;10.968;2023-04-03T02:25:08;1.70;99.90
5834;DHT22;2943;48.012;10.968;2023-04-03T02:27:36;1.70;99.90
5834;DHT22;2943;48.012;10.968;2023-04-03T02:30:03;1.70;99.90
5834;DHT22;2943;48.012;10.968;2023-04-03T02:32:30;1.70;99.90
5834;DHT22;2943;48.012;10.968;2023-04-03T02:34:57;1.80;99.90
5834;DHT22;2943;48.012;10.968;2023-04-03T02:37:24;1.80;99.90
5834;DHT22;2943;48.012;10.968;2023-04-03T02:39:51;1.80;99.90
5834;DHT22;2943;48.012;10.968;2023-04-03T02:42:19;1.80;99.90
5834;DHT22;2943;48.012;10.968;2023-04-03T02:44:46;1.80;99.90
5834;DHT22;2943;48.012;10.968;2023-04-03T02:47:12;1.80;99.90
5834;DHT22;2943;48.012;10.968;2023-04-03T02:49:41;1.80;99.90
5834;DHT22;2943;48.012;10.968;2023-04-03T02:52:10;1.80;99.90
5834;DHT22;2943;48.012;10.968;2023-04-03T02:54:37;1.80;99.90
5834;DHT22;2943;48.012;10.968;2023-04-03T02:57:03;1.80;99.90
5834;DHT22;2943;48.012;10.968;2023-04-03T02:59:32;1.80;99.90
5834;DHT22;2943;48.012;10.968;2023-04-03T03:01:58;1.80;99.90
5834;DHT22;2943;48.012;10.968;2023-04-03T03:04:25;1.70;99.90
5834;DHT22;2943;48.012;10.968;2023-04-03T03:06:52;1.70;99.90
5834;DHT22;2943;48.012;10.968;2023-04-03T03:09:19;1.80;99.90
5834;DHT22;2943;48.012;10.968;2023-04-03T03:11:46;1.80;99.90
5834;DHT22;2943;48.012;10.968;2023-04-03T03:14:13;1.80;99.90
5834;DHT22;2943;48.012;10.968;2023-04-03T03:16:41;1.80;99.90
5834;DHT22;2943;48.012;10.968;2023-04-03T03:19:08;1.70;99.90
5834;DHT22;2943;48.012;10.968;2023-04-03T03:21:35;1.70;99.90
5834;DHT22;2943;48.012;10.968;2023-04-03T03:24:02;1.60;99.90
5834;DHT22;2943;48.012;10.968;2023-04-03T03:26:29;1.60;99.90
5834;DHT22;2943;48.012;10.968;2023-04-03T03:28:55;1.70;99.90
5834;DHT22;2943;48.012;10.968;2023-04-03T03:31:22;1.70;99.90
5834;DHT22;2943;48.012;10.968;2023-04-03T03:33:50;1.70;99.90
5834;DHT22;2943;48.012;10.968;2023-04-03T03:36:17;1.70;99.90
5834;DHT22;2943;48.012;10.968;2023-04-03T03:38:44;1.70;99.90
5834;DHT22;2943;48.012;10.968;2023-04-03T03:41:10;1.70;99.90
5834;DHT22;2943;48.012;10.968;2023-04-03T03:43:37;1.70;99.90
5834;DHT22;2943;48.012;10.968;2023-04-03T03:46:04;1.70;99.90
5834;DHT22;2943;48.012;10.968;2023-04-03T03:48:31;1.70;99.90
5834;DHT22;2943;48.012;10.968;2023-04-03T03:50:59;1.70;99.90
5834;DHT22;2943;48.012;10.968;2023-04-03T03:53:26;1.70;99.90
5834;DHT22;2943;48.012;10.968;2023-04-03T03:55:53;1.80;99.90
5834;DHT22;2943;48.012;10.968;2023-04-03T03:58:20;1.80;99.90
5834;DHT22;2943;48.012;10.968;2023-04-03T04:00:46;1.80;99.90
5834;DHT22;2943;48.012;10.968;2023-04-03T04:03:13;1.80;99.90
5834;DHT22;2943;48.012;10.968;2023-04-03T04:05:40;1.80;99.90
5834;DHT22;2943;48.012;10.968;2023-04-03T04:08:08;1.80;99.90
5834;DHT22;2943;48.012;10.968;2023-04-03T04:10:36;1.70;99.90
5834;DHT22;2943;48.012;10.968;2023-04-03T04:13:04;1.70;99.90
5834;DHT22;2943;48.012;10.968;2023-04-03T04:15:30;1.60;99.90
5834;DHT22;2943;48.012;10.968;2023-04-03T04:17:57;1.70;99.90
5834;DHT22;2943;48.012;10.968;2023-04-03T04:20:24;1.70;99.90
5834;DHT22;2943;48.012;10.968;2023-04-03T04:22:51;1.70;99.90
5834;DHT22;2943;48.012;10.968;2023-04-03T04:25:19;1.70;99.90
5834;DHT22;2943;48.012;10.968;2023-04-03T04:27:46;1.70;99.90
5834;DHT22;2943;48.012;10.968;2023-04-03T04:30:13;1.70;99.90
5834;DHT22;2943;48.012;10.968;2023-04-03T04:32:40;1.60;99.90
5834;DHT22;2943;48.012;10.968;2023-04-03T04:35:07;1.60;99.90
5834;DHT22;2943;48.012;10.968;2023-04-03T04:37:34;1.60;99.90
5834;DHT22;2943;48.012;10.968;2023-04-03T04:40:01;1.60;99.90
5834;DHT22;2943;48.012;10.968;2023-04-03T04:42:29;1.60;99.90
5834;DHT22;2943;48.012;10.968;2023-04-03T04:44:56;1.60;99.90
5834;DHT22;2943;48.012;10.968;2023-04-03T04:47:23;1.60;99.90
5834;DHT22;2943;48.012;10.968;2023-04-03T04:49:50;1.60;99.90
5834;DHT22;2943;48.012;10.968;2023-04-03T04:52:16;1.70;99.90
5834;DHT22;2943;48.012;10.968;2023-04-03T04:54:44;1.70;99.90
5834;DHT22;2943;48.012;10.968;2023-04-03T04:57:11;1.70;99.90
5834;DHT22;2943;48.012;10.968;2023-04-03T04:59:40;1.70;99.90
5834;DHT22;2943;48.012;10.968;2023-04-03T05:02:07;1.70;99.90
5834;DHT22;2943;48.012;10.968;2023-04-03T05:04:34;1.80;99.90
5834;DHT22;2943;48.012;10.968;2023-04-03T05:07:00;1.80;99.90
5834;DHT22;2943;48.012;10.968;2023-04-03T05:09:27;1.80;99.90
5834;DHT22;2943;48.012;10.968;2023-04-03T05:11:56;1.80;99.90
5834;DHT22;2943;48.012;10.968;2023-04-03T05:14:23;1.80;99.90
5834;DHT22;2943;48.012;10.968;2023-04-03T05:16:51;1.80;99.90
5834;DHT22;2943;48.012;10.968;2023-04-03T05:19:19;1.80;99.90
5834;DHT22;2943;48.012;10.968;2023-04-03T05:21:47;1.70;99.90
5834;DHT22;2943;48.012;10.968;2023-04-03T05:24:14;1.80;99.90
5834;DHT22;2943;48.012;10.968;2023-04-03T05:26:41;1.80;99.90
5834;DHT22;2943;48.012;10.968;2023-04-03T05:29:08;1.90;99.90
5834;DHT22;2943;48.012;10.968;2023-04-03T05:31:35;1.90;99.90
5834;DHT22;2943;48.012;10.968;2023-04-03T05:34:04;1.90;99.90
5834;DHT22;2943;48.012;10.968;2023-04-03T05:36:31;1.90;99.90
5834;DHT22;2943;48.012;10.968;2023-04-03T05:38:58;1.90;99.90
5834;DHT22;2943;48.012;10.968;2023-04-03T05:41:24;1.90;99.90
5834;DHT22;2943;48.012;10.968;2023-04-03T05:43:51;1.90;99.90
5834;DHT22;2943;48.012;10.968;2023-04-03T05:46:19;1.90;99.90
5834;DHT22;2943;48.012;10.968;2023-04-03T05:48:47;1.90;99.90
5834;DHT22;2943;48.012;10.968;2023-04-03T05:51:23;2.00;99.90
5834;DHT22;2943;48.012;10.968;2023-04-03T05:53:56;2.00;99.90
5834;DHT22;2943;48.012;10.968;2023-04-03T05:56:25;2.00;99.90
5834;DHT22;2943;48.012;10.968;2023-04-03T05:58:52;2.10;99.90
5834;DHT22;2943;48.012;10.968;2023-04-03T06:01:19;2.00;99.90
5834;DHT22;2943;48.012;10.968;2023-04-03T06:03:46;2.10;99.90
5834;DHT22;2943;48.012;10.968;2023-04-03T06:06:13;2.00;99.90
5834;DHT22;2943;48.012;10.968;2023-04-03T06:08:42;2.10;99.90
5834;DHT22;2943;48.012;10.968;2023-04-03T06:11:10;2.00;99.90
5834;DHT22;2943;48.012;10.968;2023-04-03T06:13:36;2.10;99.90
5834;DHT22;2943;48.012;10.968;2023-04-03T06:16:04;2.10;99.90
5834;DHT22;2943;48.012;10.968;2023-04-03T06:18:31;2.20;99.90
5834;DHT22;2943;48.012;10.968;2023-04-03T06:20:58;2.20;99.90
5834;DHT22;2943;48.012;10.968;2023-04-03T06:23:26;2.20;99.90
5834;DHT22;2943;48.012;10.968;2023-04-03T06:25:54;2.20;99.90
5834;DHT22;2943;48.012;10.968;2023-04-03T06:28:21;2.20;99.90
5834;DHT22;2943;48.012;10.968;2023-04-03T06:30:47;2.20;99.90
5834;DHT22;2943;48.012;10.968;2023-04-03T06:33:14;2.20;99.90
5834;DHT22;2943;48.012;10.968;2023-04-03T06:35:41;2.30;99.90
5834;DHT22;2943;48.012;10.968;2023-04-03T06:38:08;2.30;99.90
5834;DHT22;2943;48.012;10.968;2023-04-03T06:40:35;2.30;99.90
5834;DHT22;2943;48.012;10.968;2023-04-03T06:43:03;2.30;99.90
5834;DHT22;2943;48.012;10.968;2023-04-03T06:45:31;2.40;99.90
5834;DHT22;2943;48.012;10.968;2023-04-03T06:47:58;2.30;99.90
5834;DHT22;2943;48.012;10.968;2023-04-03T06:50:25;2.30;99.90
5834;DHT22;2943;48.012;10.968;2023-04-03T06:52:52;2.30;99.90
5834;DHT22;2943;48.012;10.968;2023-04-03T06:55:19;2.30;99.90
5834;DHT22;2943;48.012;10.968;2023-04-03T06:57:45;2.30;99.90
5834;DHT22;2943;48.012;10.968;2023-04-03T07:00:16;2.20;99.90
5834;DHT22;2943;48.012;10.968;2023-04-03T07:02:43;2.20;99.90
5834;DHT22;2943;48.012;10.968;2023-04-03T07:05:10;2.10;99.90
5834;DHT22;2943;48.012;10.968;2023-04-03T07:07:37;2.10;99.90
5834;DHT22;2943;48.012;10.968;2023-04-03T07:10:05;2.20;99.90
5834;DHT22;2943;48.012;10.968;2023-04-03T07:12:33;2.20;99.90
5834;DHT22;2943;48.012;10.968;2023-04-03T07:15:00;2.20;99.90
5834;DHT22;2943;48.012;10.968;2023-04-03T07:17:28;2.20;99.90
5834;DHT22;2943;48.012;10.968;2023-04-03T07:19:55;2.20;99.90
5834;DHT22;2943;48.012;10.968;2023-04-03T07:22:22;2.20;99.90
5834;DHT22;2943;48.012;10.968;2023-04-03T07:24:49;2.30;99.90
5834;DHT22;2943;48.012;10.968;2023-04-03T07:27:18;2.30;99.90
5834;DHT22;2943;48.012;10.968;2023-04-03T07:29:45;2.30;99.90
5834;DHT22;2943;48.012;10.968;2023-04-03T07:32:14;2.30;99.90
5834;DHT22;2943;48.012;10.968;2023-04-03T07:34:43;2.40;99.90
5834;DHT22;2943;48.012;10.968;2023-04-03T07:37:10;2.40;99.90
5834;DHT22;2943;48.012;10.968;2023-04-03T07:39:37;2.50;99.90
5834;DHT22;2943;48.012;10.968;2023-04-03T07:42:04;2.60;99.90
5834;DHT22;2943;48.012;10.968;2023-04-03T07:44:30;2.60;99.90
5834;DHT22;2943;48.012;10.968;2023-04-03T07:46:57;2.60;99.90
5834;DHT22;2943;48.012;10.968;2023-04-03T07:49:25;2.70;99.90
5834;DHT22;2943;48.012;10.968;2023-04-03T07:51:54;2.70;99.90
5834;DHT22;2943;48.012;10.968;2023-04-03T07:54:21;2.80;99.90
5834;DHT22;2943;48.012;10.968;2023-04-03T07:56:47;2.80;99.90
5834;DHT22;2943;48.012;10.968;2023-04-03T07:59:14;2.90;99.90
5834;DHT22;2943;48.012;10.968;2023-04-03T08:01:41;2.90;99.90
5834;DHT22;2943;48.012;10.968;2023-04-03T08:04:08;3.00;99.90
5834;DHT22;2943;48.012;10.968;2023-04-03T08:06:35;3.00;99.90
5834;DHT22;2943;48.012;10.968;2023-04-03T08:09:04;3.00;99.90
5834;DHT22;2943;48.012;10.968;2023-04-03T08:11:31;3.00;99.90
5834;DHT22;2943;48.012;10.968;2023-04-03T08:13:58;3.10;99.90
5834;DHT22;2943;48.012;10.968;2023-04-03T08:16:25;3.10;99.90
5834;DHT22;2943;48.012;10.968;2023-04-03T08:18:53;3.10;99.90
5834;DHT22;2943;48.012;10.968;2023-04-03T08:21:20;3.10;99.90
5834;DHT22;2943;48.012;10.968;2023-04-03T08:23:49;3.10;99.90
5834;DHT22;2943;48.012;10.968;2023-04-03T08:26:20;3.20;99.90
5834;DHT22;2943;48.012;10.968;2023-04-03T08:28:48;3.20;99.90
5834;DHT22;2943;48.012;10.968;2023-04-03T08:31:17;3.20;99.90
5834;DHT22;2943;48.012;10.968;2023-04-03T08:33:44;3.30;99.90
5834;DHT22;2943;48.012;10.968;2023-04-03T08:36:19;3.40;99.90
5834;DHT22;2943;48.012;10.968;2023-04-03T08:38:46;3.40;99.90
5834;DHT22;2943;48.012;10.968;2023-04-03T08:41:19;3.50;99.90
5834;DHT22;2943;48.012;10.968;2023-04-03T08:44:03;3.60;99.90
5834;DHT22;2943;48.012;10.968;2023-04-03T08:46:41;3.70;99.90
5834;DHT22;2943;48.012;10.968;2023-04-03T08:49:14;3.70;99.90
5834;DHT22;2943;48.012;10.968;2023-04-03T08:51:45;3.80;99.90
5834;DHT22;2943;48.012;10.968;2023-04-03T08:54:24;3.90;99.90
5834;DHT22;2943;48.012;10.968;2023-04-03T08:56:53;3.90;99.90
5834;DHT22;2943;48.012;10.968;2023-04-03T08:59:26;3.90;99.90
5834;DHT22;2943;48.012;10.968;2023-04-03T09:01:54;4.00;99.90
5834;DHT22;2943;48.012;10.968;2023-04-03T09:04:23;4.10;99.90
5834;DHT22;2943;48.012;10.968;2023-04-03T09:06:54;4.10;99.90
5834;DHT22;2943;48.012;10.968;2023-04-03T09:09:33;4.10;99.90
5834;DHT22;2943;48.012;10.968;2023-04-03T09:12:13;4.30;99.90
5834;DHT22;2943;48.012;10.968;2023-04-03T09:14:46;4.20;99.90
5834;DHT22;2943;48.012;10.968;2023-04-03T09:17:23;4.30;99.90
5834;DHT22;2943;48.012;10.968;2023-04-03T09:19:58;4.30;99.90
5834;DHT22;2943;48.012;10.968;2023-04-03T09:22:31;4.40;99.90
5834;DHT22;2943;48.012;10.968;2023-04-03T09:25:10;4.50;99.90
5834;DHT22;2943;48.012;10.968;2023-04-03T09:30:30;4.50;99.90
5834;DHT22;2943;48.012;10.968;2023-04-03T09:33:14;4.50;99.90
5834;DHT22;2943;48.012;10.968;2023-04-03T09:35:50;4.50;99.90
5834;DHT22;2943;48.012;10.968;2023-04-03T09:38:20;4.60;99.90
5834;DHT22;2943;48.012;10.968;2023-04-03T09:40:48;4.40;99.90
5834;DHT22;2943;48.012;10.968;2023-04-03T09:43:28;4.40;99.90
5834;DHT22;2943;48.012;10.968;2023-04-03T09:46:15;4.30;99.90
5834;DHT22;2943;48.012;10.968;2023-04-03T09:48:51;4.30;99.90
5834;DHT22;2943;48.012;10.968;2023-04-03T09:51:18;4.40;99.90
5834;DHT22;2943;48.012;10.968;2023-04-03T09:53:45;4.40;99.90
5834;DHT22;2943;48.012;10.968;2023-04-03T09:56:24;4.50;99.90
5834;DHT22;2943;48.012;10.968;2023-04-03T09:59:07;4.50;99.90
5834;DHT22;2943;48.012;10.968;2023-04-03T10:01:36;4.40;99.90
5834;DHT22;2943;48.012;10.968;2023-04-03T10:04:09;4.40;99.90
5834;DHT22;2943;48.012;10.968;2023-04-03T10:06:39;4.50;99.90
5834;DHT22;2943;48.012;10.968;2023-04-03T10:09:18;4.50;99.90
5834;DHT22;2943;48.012;10.968;2023-04-03T10:12:00;4.30;99.90
5834;DHT22;2943;48.012;10.968;2023-04-03T10:14:32;4.20;99.90
5834;DHT22;2943;48.012;10.968;2023-04-03T10:17:04;4.10;99.90
5834;DHT22;2943;48.012;10.968;2023-04-03T10:19:35;4.00;99.90
5834;DHT22;2943;48.012;10.968;2023-04-03T10:22:09;4.10;99.90
5834;DHT22;2943;48.012;10.968;2023-04-03T10:27:20;4.10;99.90
5834;DHT22;2943;48.012;10.968;2023-04-03T10:29:55;4.10;99.90
5834;DHT22;2943;48.012;10.968;2023-04-03T10:32:45;4.10;99.90
5834;DHT22;2943;48.012;10.968;2023-04-03T10:35:18;4.20;99.90
5834;DHT22;2943;48.012;10.968;2023-04-03T10:37:55;4.30;99.90
5834;DHT22;2943;48.012;10.968;2023-04-03T10:40:30;4.40;99.90
5834;DHT22;2943;48.012;10.968;2023-04-03T10:43:04;4.50;99.90
5834;DHT22;2943;48.012;10.968;2023-04-03T10:45:48;4.60;99.90
5834;DHT22;2943;48.012;10.968;2023-04-03T10:48:21;4.70;99.90
5834;DHT22;2943;48.012;10.968;2023-04-03T10:50:58;4.70;99.90
5834;DHT22;2943;48.012;10.968;2023-04-03T10:53:31;4.80;99.90
5834;DHT22;2943;48.012;10.968;2023-04-03T10:56:06;4.90;99.90
5834;DHT22;2943;48.012;10.968;2023-04-03T10:58:40;4.90;99.90
5834;DHT22;2943;48.012;10.968;2023-04-03T11:01:14;4.90;99.90
5834;DHT22;2943;48.012;10.968;2023-04-03T11:03:44;4.90;99.90
5834;DHT22;2943;48.012;10.968;2023-04-03T11:06:14;4.90;99.90
5834;DHT22;2943;48.012;10.968;2023-04-03T11:08:45;4.90;99.90
5834;DHT22;2943;48.012;10.968;2023-04-03T11:11:20;4.90;99.90
5834;DHT22;2943;48.012;10.968;2023-04-03T11:13:50;5.00;99.90
5834;DHT22;2943;48.012;10.968;2023-04-03T11:16:23;5.00;99.90
5834;DHT22;2943;48.012;10.968;2023-04-03T11:18:54;5.00;99.90
5834;DHT22;2943;48.012;10.968;2023-04-03T11:21:27;5.20;99.90
5834;DHT22;2943;48.012;10.968;2023-04-03T11:23:57;5.20;99.90
5834;DHT22;2943;48.012;10.968;2023-04-03T11:26:28;5.30;99.90
5834;DHT22;2943;48.012;10.968;2023-04-03T11:28:59;5.30;99.90
5834;DHT22;2943;48.012;10.968;2023-04-03T11:31:41;5.20;99.90
5834;DHT22;2943;48.012;10.968;2023-04-03T11:34:23;5.20;99.90
5834;DHT22;2943;48.012;10.968;2023-04-03T11:36:55;5.20;99.90
5834;DHT22;2943;48.012;10.968;2023-04-03T11:39:25;5.20;99.90
5834;DHT22;2943;48.012;10.968;2023-04-03T11:41:53;5.30;99.90
5834;DHT22;2943;48.012;10.968;2023-04-03T11:44:34;5.50;99.90
5834;DHT22;2943;48.012;10.968;2023-04-03T11:47:04;5.70;99.90
5834;DHT22;2943;48.012;10.968;2023-04-03T11:49:52;5.70;99.90
5834;DHT22;2943;48.012;10.968;2023-04-03T11:52:58;5.70;99.90
5834;DHT22;2943;48.012;10.968;2023-04-03T11:55:53;5.70;99.90
5834;DHT22;2943;48.012;10.968;2023-04-03T11:58:22;5.60;99.90
5834;DHT22;2943;48.012;10.968;2023-04-03T12:00:59;5.40;99.90
5834;DHT22;2943;48.012;10.968;2023-04-03T12:09:56;4.70;99.90
5834;DHT22;2943;48.012;10.968;2023-04-03T12:12:33;4.50;99.90
5834;DHT22;2943;48.012;10.968;2023-04-03T12:15:20;4.40;99.90
5834;DHT22;2943;48.012;10.968;2023-04-03T12:17:48;4.30;99.90
5834;DHT22;2943;48.012;10.968;2023-04-03T12:20:54;4.20;99.90
5834;DHT22;2943;48.012;10.968;2023-04-03T12:23:27;4.10;99.90
5834;DHT22;2943;48.012;10.968;2023-04-03T12:26:02;4.10;99.90
5834;DHT22;2943;48.012;10.968;2023-04-03T12:28:37;4.10;99.90
5834;DHT22;2943;48.012;10.968;2023-04-03T12:31:08;4.10;99.90
5834;DHT22;2943;48.012;10.968;2023-04-03T12:33:49;4.10;99.90
5834;DHT22;2943;48.012;10.968;2023-04-03T12:36:30;4.20;99.90
5834;DHT22;2943;48.012;10.968;2023-04-03T12:39:17;4.20;99.90
5834;DHT22;2943;48.012;10.968;2023-04-03T12:41:54;4.30;99.90
5834;DHT22;2943;48.012;10.968;2023-04-03T12:44:38;4.30;99.90
5834;DHT22;2943;48.012;10.968;2023-04-03T12:47:22;4.30;99.90
5834;DHT22;2943;48.012;10.968;2023-04-03T12:49:50;4.30;99.90
5834;DHT22;2943;48.012;10.968;2023-04-03T12:52:22;4.30;99.90
5834;DHT22;2943;48.012;10.968;2023-04-03T12:54:51;4.30;99.90
5834;DHT22;2943;48.012;10.968;2023-04-03T12:57:26;4.40;99.90
5834;DHT22;2943;48.012;10.968;2023-04-03T12:59:54;4.40;99.90
5834;DHT22;2943;48.012;10.968;2023-04-03T13:02:24;4.40;99.90
5834;DHT22;2943;48.012;10.968;2023-04-03T13:04:53;4.40;99.90
5834;DHT22;2943;48.012;10.968;2023-04-03T13:07:26;4.40;99.90
5834;DHT22;2943;48.012;10.968;2023-04-03T13:09:58;4.50;99.90
5834;DHT22;2943;48.012;10.968;2023-04-03T13:12:26;4.50;99.90
5834;DHT22;2943;48.012;10.968;2023-04-03T13:14:55;4.50;99.90
5834;DHT22;2943;48.012;10.968;2023-04-03T13:17:23;4.50;99.90
5834;DHT22;2943;48.012;10.968;2023-04-03T13:19:51;4.40;99.90
5834;DHT22;2943;48.012;10.968;2023-04-03T13:22:28;4.40;99.90
5834;DHT22;2943;48.012;10.968;2023-04-03T13:25:00;4.40;99.90
5834;DHT22;2943;48.012;10.968;2023-04-03T13:27:33;4.30;99.90
5834;DHT22;2943;48.012;10.968;2023-04-03T13:30:02;4.30;99.90
5834;DHT22;2943;48.012;10.968;2023-04-03T13:32:31;4.40;99.90
5834;DHT22;2943;48.012;10.968;2023-04-03T13:34:59;4.50;99.90
5834;DHT22;2943;48.012;10.968;2023-04-03T13:37:28;4.60;99.90
5834;DHT22;2943;48.012;10.968;2023-04-03T13:40:10;4.60;99.90
5834;DHT22;2943;48.012;10.968;2023-04-03T13:42:40;4.70;99.90
5834;DHT22;2943;48.012;10.968;2023-04-03T13:45:26;4.80;99.90
5834;DHT22;2943;48.012;10.968;2023-04-03T13:48:14;4.90;99.90
5834;DHT22;2943;48.012;10.968;2023-04-03T13:51:01;4.90;99.90
5834;DHT22;2943;48.012;10.968;2023-04-03T13:53:29;5.00;99.90
5834;DHT22;2943;48.012;10.968;2023-04-03T13:56:06;5.00;99.90
5834;DHT22;2943;48.012;10.968;2023-04-03T13:58:36;5.10;99.90
5834;DHT22;2943;48.012;10.968;2023-04-03T14:01:11;5.20;99.90
5834;DHT22;2943;48.012;10.968;2023-04-03T14:03:44;5.30;99.90
5834;DHT22;2943;48.012;10.968;2023-04-03T14:06:13;5.40;99.90
5834;DHT22;2943;48.012;10.968;2023-04-03T14:08:40;5.50;99.90
5834;DHT22;2943;48.012;10.968;2023-04-03T14:11:13;5.50;99.90
5834;DHT22;2943;48.012;10.968;2023-04-03T14:13:42;5.60;99.90
5834;DHT22;2943;48.012;10.968;2023-04-03T14:16:14;5.60;99.90
5834;DHT22;2943;48.012;10.968;2023-04-03T14:18:42;5.60;99.90
5834;DHT22;2943;48.012;10.968;2023-04-03T14:21:13;5.80;99.90
5834;DHT22;2943;48.012;10.968;2023-04-03T14:23:40;5.90;99.90
5834;DHT22;2943;48.012;10.968;2023-04-03T14:26:11;6.00;99.90
5834;DHT22;2943;48.012;10.968;2023-04-03T14:28:38;6.10;99.90
5834;DHT22;2943;48.012;10.968;2023-04-03T14:31:07;6.10;99.90
5834;DHT22;2943;48.012;10.968;2023-04-03T14:33:37;6.10;99.90
5834;DHT22;2943;48.012;10.968;2023-04-03T14:36:12;6.10;99.90
5834;DHT22;2943;48.012;10.968;2023-04-03T14:38:40;6.00;99.90
5834;DHT22;2943;48.012;10.968;2023-04-03T14:41:09;5.90;99.90
5834;DHT22;2943;48.012;10.968;2023-04-03T14:43:37;5.90;99.90
5834;DHT22;2943;48.012;10.968;2023-04-03T14:46:04;5.90;99.90
5834;DHT22;2943;48.012;10.968;2023-04-03T14:48:33;6.00;99.90
5834;DHT22;2943;48.012;10.968;2023-04-03T14:51:00;6.10;99.90
5834;DHT22;2943;48.012;10.968;2023-04-03T14:53:27;6.10;99.90
5834;DHT22;2943;48.012;10.968;2023-04-03T14:55:55;6.10;99.90
5834;DHT22;2943;48.012;10.968;2023-04-03T14:58:22;6.10;99.90
5834;DHT22;2943;48.012;10.968;2023-04-03T15:00:49;5.90;99.90
5834;DHT22;2943;48.012;10.968;2023-04-03T15:03:17;5.70;99.90
5834;DHT22;2943;48.012;10.968;2023-04-03T15:05:47;5.60;99.90
5834;DHT22;2943;48.012;10.968;2023-04-03T15:08:21;5.60;99.90
5834;DHT22;2943;48.012;10.968;2023-04-03T15:10:48;5.50;99.90
5834;DHT22;2943;48.012;10.968;2023-04-03T15:13:15;5.50;99.90
5834;DHT22;2943;48.012;10.968;2023-04-03T15:15:42;5.40;99.90
5834;DHT22;2943;48.012;10.968;2023-04-03T15:18:16;5.30;99.90
5834;DHT22;2943;48.012;10.968;2023-04-03T15:20:44;5.30;99.90
5834;DHT22;2943;48.012;10.968;2023-04-03T15:23:14;5.30;99.90
5834;DHT22;2943;48.012;10.968;2023-04-03T15:25:41;5.20;99.90
5834;DHT22;2943;48.012;10.968;2023-04-03T15:28:15;5.20;99.90
5834;DHT22;2943;48.012;10.968;2023-04-03T15:30:44;5.00;99.90
5834;DHT22;2943;48.012;10.968;2023-04-03T15:33:11;5.10;99.90
5834;DHT22;2943;48.012;10.968;2023-04-03T15:35:38;5.30;99.90
5834;DHT22;2943;48.012;10.968;2023-04-03T15:38:07;5.60;99.90
5834;DHT22;2943;48.012;10.968;2023-04-03T15:40:35;5.90;99.90
5834;DHT22;2943;48.012;10.968;2023-04-03T15:43:02;6.10;99.90
5834;DHT22;2943;48.012;10.968;2023-04-03T15:45:30;6.40;99.90
5834;DHT22;2943;48.012;10.968;2023-04-03T15:47:57;6.50;99.90
5834;DHT22;2943;48.012;10.968;2023-04-03T15:50:24;6.30;99.90
5834;DHT22;2943;48.012;10.968;2023-04-03T15:52:52;6.20;99.90
5834;DHT22;2943;48.012;10.968;2023-04-03T15:55:20;6.20;99.90
5834;DHT22;2943;48.012;10.968;2023-04-03T15:57:48;6.30;99.90
5834;DHT22;2943;48.012;10.968;2023-04-03T16:00:16;6.40;99.90
5834;DHT22;2943;48.012;10.968;2023-04-03T16:02:44;6.50;99.90
5834;DHT22;2943;48.012;10.968;2023-04-03T16:05:12;6.60;99.90
5834;DHT22;2943;48.012;10.968;2023-04-03T16:07:41;6.80;99.90
5834;DHT22;2943;48.012;10.968;2023-04-03T16:10:09;6.90;99.90
5834;DHT22;2943;48.012;10.968;2023-04-03T16:12:36;6.80;99.90
5834;DHT22;2943;48.012;10.968;2023-04-03T16:15:06;6.70;99.90
5834;DHT22;2943;48.012;10.968;2023-04-03T16:17:34;6.70;99.90
5834;DHT22;2943;48.012;10.968;2023-04-03T16:20:02;6.70;99.90
5834;DHT22;2943;48.012;10.968;2023-04-03T16:22:30;6.60;99.90
5834;DHT22;2943;48.012;10.968;2023-04-03T16:24:57;6.60;99.90
5834;DHT22;2943;48.012;10.968;2023-04-03T16:27:24;6.70;99.90
5834;DHT22;2943;48.012;10.968;2023-04-03T16:29:53;6.80;99.90
5834;DHT22;2943;48.012;10.968;2023-04-03T16:32:21;6.80;99.90